createdAt,value
2018-11-28T00:01:07.572Z,27.43
2018-11-28T00:03:37.232Z,26.10
2018-11-28T00:06:07.084Z,27.67
2018-11-28T00:08:36.528Z,29.80
2018-11-28T00:11:06.173Z,29.47
2018-11-28T00:13:35.995Z,30.07
2018-11-28T00:16:06.327Z,25.50
2018-11-28T00:18:36.126Z,31.70
2018-11-28T00:21:05.551Z,31.17
2018-11-28T00:23:35.525Z,30.40
2018-11-28T00:26:04.925Z,31.20
2018-11-28T00:28:35.202Z,32.93
2018-11-28T00:31:04.575Z,35.00
2018-11-28T00:33:34.469Z,30.80
2018-11-28T00:36:03.811Z,33.00
2018-11-28T00:38:33.388Z,29.67
2018-11-28T00:41:02.720Z,37.77
2018-11-28T00:43:32.049Z,33.90
2018-11-28T00:46:01.426Z,33.43
2018-11-28T00:48:30.776Z,35.77
2018-11-28T00:51:00.110Z,37.30
2018-11-28T00:53:29.431Z,35.63
2018-11-28T00:55:58.822Z,33.27
2018-11-28T00:58:28.143Z,36.87
2018-11-28T01:00:57.505Z,33.10
2018-11-28T01:03:27.062Z,33.53
2018-11-28T01:05:56.440Z,36.57
2018-11-28T01:08:25.767Z,35.90
2018-11-28T01:10:55.143Z,33.43
2018-11-28T01:13:24.491Z,34.57
2018-11-28T01:15:53.794Z,31.57
2018-11-28T01:18:23.777Z,38.30
2018-11-28T01:20:53.142Z,39.87
2018-11-28T01:23:22.509Z,36.63
2018-11-28T01:25:51.913Z,35.77
2018-11-28T01:28:21.230Z,36.83
2018-11-28T01:30:50.789Z,42.33
2018-11-28T01:33:21.091Z,35.97
2018-11-28T01:35:50.456Z,38.33
2018-11-28T01:38:19.811Z,40.50
2018-11-28T01:40:49.190Z,40.97
2018-11-28T01:43:18.496Z,40.90
2018-11-28T01:45:47.815Z,42.23
2018-11-28T01:48:17.150Z,40.33
2018-11-28T01:50:46.745Z,48.40
2018-11-28T01:53:16.412Z,44.93
2018-11-28T01:55:45.992Z,44.07
2018-11-28T01:58:15.565Z,50.77
2018-11-28T02:00:45.275Z,45.60
2018-11-28T02:03:14.908Z,40.13
2018-11-28T02:05:44.445Z,43.03
2018-11-28T02:08:14.024Z,41.83
2018-11-28T02:10:43.617Z,44.07
2018-11-28T02:13:13.171Z,39.27
2018-11-28T02:15:43.819Z,39.93
2018-11-28T02:18:13.513Z,50.97
2018-11-28T02:20:43.369Z,49.87
2018-11-28T02:23:12.952Z,50.20
2018-11-28T02:25:43.221Z,46.83
2018-11-28T02:28:12.819Z,46.70
2018-11-28T02:30:43.625Z,43.37
2018-11-28T02:33:13.253Z,40.17
2018-11-28T02:35:43.248Z,37.60
2018-11-28T02:38:12.850Z,36.93
2018-11-28T02:40:42.939Z,43.93
2018-11-28T02:43:12.585Z,45.07
2018-11-28T02:45:43.877Z,42.23
2018-11-28T02:48:13.313Z,41.83
2018-11-28T02:50:43.215Z,39.50
2018-11-28T02:53:12.540Z,41.13
2018-11-28T02:55:42.648Z,36.00
2018-11-28T02:58:12.023Z,36.97
2018-11-28T03:00:42.853Z,36.00
2018-11-28T03:03:12.251Z,35.20
2018-11-28T03:05:42.105Z,38.63
2018-11-28T03:08:11.494Z,36.90
2018-11-28T03:10:40.820Z,35.33
2018-11-28T03:13:10.203Z,35.27
2018-11-28T03:15:43.133Z,38.77
2018-11-28T03:18:12.476Z,33.13
2018-11-28T03:20:42.029Z,34.80
2018-11-28T03:23:11.415Z,36.10
2018-11-28T03:25:40.752Z,42.73
2018-11-28T03:28:10.104Z,42.23
2018-11-28T03:30:40.611Z,76.23
2018-11-28T03:33:09.983Z,52.93
2018-11-28T03:35:39.431Z,128.63
2018-11-28T03:38:09.235Z,73.77
2018-11-28T03:40:38.644Z,60.77
2018-11-28T03:43:08.039Z,45.63
2018-11-28T03:45:37.547Z,46.70
2018-11-28T03:48:07.012Z,76.33
2018-11-28T03:50:36.361Z,81.23
2018-11-28T03:53:06.145Z,50.57
2018-11-28T03:55:35.480Z,80.70
2018-11-28T03:58:04.814Z,98.10
2018-11-28T04:00:34.163Z,129.60
2018-11-28T04:03:03.485Z,125.40
2018-11-28T04:05:32.824Z,82.87
2018-11-28T04:08:02.182Z,84.77
2018-11-28T04:10:31.536Z,77.53
2018-11-28T04:13:00.859Z,89.60
2018-11-28T04:15:30.210Z,128.83
2018-11-28T04:17:59.667Z,76.13
2018-11-28T04:20:29.035Z,61.17
2018-11-28T04:22:58.362Z,91.83
2018-11-28T04:25:27.667Z,85.03
2018-11-28T04:27:57.035Z,154.10
2018-11-28T04:30:26.507Z,132.20
2018-11-28T04:32:56.282Z,264.00
2018-11-28T04:35:25.698Z,175.10
2018-11-28T04:37:55.127Z,124.53
2018-11-28T04:40:24.491Z,150.17
2018-11-28T04:42:53.783Z,142.40
2018-11-28T04:45:24.830Z,237.80
2018-11-28T04:47:55.832Z,493.10
2018-11-28T04:50:25.184Z,422.77
2018-11-28T04:52:54.525Z,442.97
2018-11-28T04:55:23.894Z,304.57
2018-11-28T04:57:53.308Z,141.67
2018-11-28T05:00:26.750Z,164.30
2018-11-28T05:02:57.320Z,167.47
2018-11-28T05:05:26.729Z,192.87
2018-11-28T05:07:56.129Z,161.60
2018-11-28T05:10:26.629Z,168.00
2018-11-28T05:12:57.220Z,135.43
2018-11-28T05:15:33.507Z,388.10
2018-11-28T05:18:02.876Z,230.47
2018-11-28T05:20:34.345Z,359.97
2018-11-28T05:23:04.648Z,267.50
2018-11-28T05:25:34.855Z,330.43
2018-11-28T05:28:04.377Z,541.50
2018-11-28T05:30:34.210Z,368.47
2018-11-28T05:33:03.602Z,354.53
2018-11-28T05:35:37.221Z,250.83
2018-11-28T05:38:11.814Z,237.60
2018-11-28T05:40:41.696Z,217.17
2018-11-28T05:43:11.074Z,205.40
2018-11-28T05:45:41.188Z,194.43
2018-11-28T05:48:10.596Z,197.63
2018-11-28T05:50:40.648Z,183.97
2018-11-28T05:53:10.063Z,161.23
2018-11-28T05:55:40.185Z,182.47
2018-11-28T05:58:09.569Z,161.57
2018-11-28T06:00:41.321Z,167.07
2018-11-28T06:03:11.933Z,175.13
2018-11-28T06:05:43.137Z,155.83
2018-11-28T06:08:13.033Z,148.40
2018-11-28T06:10:42.561Z,123.20
2018-11-28T06:13:12.143Z,109.00
2018-11-28T06:15:42.625Z,108.10
2018-11-28T06:18:12.167Z,96.30
2018-11-28T06:20:41.734Z,92.27
2018-11-28T06:23:11.359Z,78.33
2018-11-28T06:25:40.972Z,79.43
2018-11-28T06:28:10.759Z,71.07
2018-11-28T06:30:41.957Z,58.87
2018-11-28T06:33:11.590Z,45.00
2018-11-28T06:35:41.126Z,43.57
2018-11-28T06:38:10.738Z,44.33
2018-11-28T06:40:40.376Z,46.73
2018-11-28T06:43:09.997Z,51.90
2018-11-28T06:45:41.265Z,55.70
2018-11-28T06:48:11.061Z,51.13
2018-11-28T06:50:40.720Z,57.80
2018-11-28T06:53:10.285Z,57.27
2018-11-28T06:55:39.986Z,63.03
2018-11-28T06:58:09.543Z,99.97
2018-11-28T07:00:40.448Z,124.43
2018-11-28T07:03:10.244Z,127.03
2018-11-28T07:05:39.858Z,105.03
2018-11-28T07:08:09.829Z,151.97
2018-11-28T07:10:39.423Z,116.33
2018-11-28T07:13:08.962Z,168.30
2018-11-28T07:15:39.155Z,126.77
2018-11-28T07:18:19.695Z,87.07
2018-11-28T07:20:49.962Z,115.73
2018-11-28T07:23:19.486Z,274.43
2018-11-28T07:25:50.257Z,177.43
2018-11-28T07:28:19.887Z,116.63
2018-11-28T07:30:50.129Z,196.17
2018-11-28T07:33:19.947Z,207.97
2018-11-28T07:35:50.361Z,150.37
2018-11-28T07:38:20.804Z,153.83
2018-11-28T07:40:50.665Z,108.87
2018-11-28T07:43:20.252Z,114.20
2018-11-28T07:45:51.496Z,125.30
2018-11-28T07:48:21.374Z,135.20
2018-11-28T07:50:51.411Z,115.13
2018-11-28T07:53:20.936Z,93.63
2018-11-28T07:55:51.117Z,95.60
2018-11-28T07:58:20.571Z,75.67
2018-11-28T08:00:50.361Z,71.27
2018-11-28T08:03:19.889Z,62.53
2018-11-28T08:05:49.636Z,52.67
2018-11-28T08:08:19.877Z,56.27
2018-11-28T08:10:49.294Z,59.27
2018-11-28T08:13:18.843Z,60.20
2018-11-28T08:15:48.220Z,55.60
2018-11-28T08:18:17.823Z,63.10
2018-11-28T08:20:47.391Z,67.33
2018-11-28T08:23:16.743Z,63.23
2018-11-28T08:25:46.098Z,60.30
2018-11-28T08:28:15.831Z,61.90
2018-11-28T08:30:45.237Z,54.07
2018-11-28T08:33:14.595Z,52.63
2018-11-28T08:35:44.558Z,52.17
2018-11-28T08:38:14.107Z,49.53
2018-11-28T08:40:43.694Z,48.07
2018-11-28T08:43:13.259Z,50.20
2018-11-28T08:45:43.637Z,47.30
2018-11-28T08:48:17.051Z,39.20
2018-11-28T08:50:46.481Z,41.30
2018-11-28T08:53:15.949Z,50.57
2018-11-28T08:55:45.288Z,45.83
2018-11-28T08:58:14.891Z,46.43
2018-11-28T09:00:44.334Z,43.60
2018-11-28T09:03:13.755Z,43.20
2018-11-28T09:05:43.120Z,45.50
2018-11-28T09:08:12.444Z,47.50
2018-11-28T09:10:41.831Z,46.47
2018-11-28T09:13:11.529Z,42.73
2018-11-28T09:15:41.935Z,43.73
2018-11-28T09:18:11.545Z,45.23
2018-11-28T09:20:41.458Z,43.53
2018-11-28T09:23:11.592Z,44.90
2018-11-28T09:25:41.295Z,42.00
2018-11-28T09:28:10.965Z,49.47
2018-11-28T09:30:41.868Z,44.53
2018-11-28T09:33:11.396Z,45.17
2018-11-28T09:35:41.076Z,43.77
2018-11-28T09:38:10.532Z,40.33
2018-11-28T09:40:40.442Z,43.00
2018-11-28T09:43:09.864Z,51.70
2018-11-28T09:45:40.413Z,47.00
2018-11-28T09:48:09.992Z,45.63
2018-11-28T09:50:39.723Z,44.73
2018-11-28T09:53:09.388Z,43.97
2018-11-28T09:55:38.792Z,46.63
2018-11-28T09:58:08.506Z,43.87
2018-11-28T10:00:38.670Z,38.27
2018-11-28T10:03:08.018Z,34.67
2018-11-28T10:05:37.426Z,35.03
2018-11-28T10:08:07.245Z,32.37
2018-11-28T10:10:36.688Z,34.93
2018-11-28T10:13:06.277Z,32.63
2018-11-28T10:15:35.895Z,34.53
2018-11-28T10:18:05.242Z,29.47
2018-11-28T10:20:34.590Z,31.27
2018-11-28T10:23:04.007Z,28.43
2018-11-28T10:25:33.344Z,33.27
2018-11-28T10:28:05.083Z,37.10
2018-11-28T10:30:36.964Z,32.23
2018-11-28T10:33:08.574Z,36.00
2018-11-28T10:35:38.675Z,32.57
2018-11-28T10:38:08.137Z,39.30
2018-11-28T10:40:37.872Z,31.87
2018-11-28T10:43:08.694Z,39.93
2018-11-28T10:45:39.745Z,38.57
2018-11-28T10:48:11.243Z,32.27
2018-11-28T10:50:40.676Z,29.03
2018-11-28T10:53:10.034Z,31.93
2018-11-28T10:55:39.412Z,31.73
2018-11-28T10:58:09.002Z,31.43
2018-11-28T11:00:43.884Z,34.40
2018-11-28T11:03:18.463Z,28.37
2018-11-28T11:05:53.020Z,30.17
2018-11-28T11:08:25.515Z,30.53
2018-11-28T11:11:32.205Z,29.73
2018-11-28T11:14:06.689Z,26.77
2018-11-28T11:16:36.008Z,25.17
2018-11-28T11:19:05.352Z,27.67
2018-11-28T11:21:35.741Z,28.03
2018-11-28T11:24:05.273Z,32.90
2018-11-28T11:26:34.592Z,29.57
2018-11-28T11:29:04.650Z,27.87
2018-11-28T11:31:34.651Z,27.70
2018-11-28T11:34:05.013Z,32.70
2018-11-28T11:36:34.405Z,28.37
2018-11-28T11:39:05.429Z,26.43
2018-11-28T11:41:35.653Z,29.80
2018-11-28T11:44:05.481Z,28.90
2018-11-28T11:46:34.922Z,28.33
2018-11-28T11:49:05.394Z,28.53
2018-11-28T11:51:35.523Z,24.43
2018-11-28T11:54:05.750Z,25.40
2018-11-28T11:56:35.111Z,26.57
2018-11-28T11:59:05.023Z,23.70
2018-11-28T12:01:35.075Z,27.07
2018-11-28T12:04:04.971Z,29.43
2018-11-28T12:06:34.360Z,25.37
2018-11-28T12:09:04.254Z,27.70
2018-11-28T12:11:34.237Z,24.67
2018-11-28T12:14:04.383Z,27.57
2018-11-28T12:16:33.783Z,25.70
2018-11-28T12:19:03.286Z,27.53
2018-11-28T12:21:32.678Z,24.43
2018-11-28T12:24:02.011Z,23.40
2018-11-28T12:26:31.545Z,22.37
2018-11-28T12:29:00.917Z,18.60
2018-11-28T12:31:30.256Z,16.47
2018-11-28T12:34:00.082Z,18.37
2018-11-28T12:36:29.863Z,16.80
2018-11-28T12:38:59.183Z,12.40
2018-11-28T12:41:28.573Z,14.10
2018-11-28T12:43:57.911Z,12.97
2018-11-28T12:46:27.183Z,14.40
2018-11-28T12:48:56.532Z,10.27
2018-11-28T12:51:27.083Z,11.23
2018-11-28T12:53:56.437Z,6.63
2018-11-28T12:56:25.833Z,8.23
2018-11-28T12:58:56.085Z,10.07
2018-11-28T13:01:25.469Z,10.83
2018-11-28T13:03:54.793Z,11.43
2018-11-28T13:06:24.927Z,10.03
2018-11-28T13:08:54.242Z,10.87
2018-11-28T13:11:23.609Z,11.70
2018-11-28T13:13:52.889Z,9.73
2018-11-28T13:16:22.228Z,10.13
2018-11-28T13:18:51.543Z,8.33
2018-11-28T13:21:20.827Z,9.13
2018-11-28T13:23:50.125Z,7.40
2018-11-28T13:26:19.712Z,7.23
2018-11-28T13:28:49.005Z,8.07
2018-11-28T13:31:18.329Z,7.77
2018-11-28T13:33:47.644Z,8.47
2018-11-28T13:36:22.487Z,10.90
2018-11-28T13:38:46.325Z,9.93
2018-11-28T13:41:15.651Z,11.83
2018-11-28T13:43:44.962Z,9.23
2018-11-28T13:46:14.255Z,9.13
2018-11-28T13:48:43.679Z,14.27
2018-11-28T13:51:13.014Z,12.40
2018-11-28T13:53:42.400Z,13.00
2018-11-28T13:58:41.940Z,13.23
2018-11-28T14:01:11.999Z,10.27
2018-11-28T14:03:42.563Z,15.17
2018-11-28T14:06:12.883Z,10.50
2018-11-28T14:08:42.213Z,12.40
2018-11-28T14:11:13.191Z,12.27
2018-11-28T14:13:42.592Z,10.17
2018-11-28T14:16:12.876Z,11.60
2018-11-28T14:18:43.189Z,13.63
2018-11-28T14:21:13.870Z,13.80
2018-11-28T14:23:43.208Z,12.23
2018-11-28T14:26:13.416Z,11.07
2018-11-28T14:28:42.901Z,13.50
2018-11-28T14:31:13.247Z,14.27
2018-11-28T14:33:42.884Z,17.57
2018-11-28T14:36:13.773Z,15.67
2018-11-28T14:38:43.096Z,12.83
2018-11-28T14:41:13.038Z,12.40
2018-11-28T14:43:42.388Z,12.50
2018-11-28T14:46:12.035Z,12.57
2018-11-28T14:48:42.470Z,20.03
2018-11-28T14:51:12.481Z,14.83
2018-11-28T14:53:41.857Z,13.37
2018-11-28T14:56:11.548Z,12.27
2018-11-28T14:58:40.932Z,10.77
2018-11-28T15:01:10.275Z,14.73
2018-11-28T15:03:41.789Z,11.63
2018-11-28T15:06:31.741Z,14.80
2018-11-28T15:09:06.352Z,14.37
2018-11-28T15:11:35.900Z,11.57
2018-11-28T15:14:05.243Z,13.43
2018-11-28T15:16:34.587Z,13.70
2018-11-28T15:19:03.905Z,14.07
2018-11-28T15:21:34.276Z,17.03
2018-11-28T15:24:03.629Z,14.03
2018-11-28T15:26:33.044Z,12.67
2018-11-28T15:29:02.491Z,12.53
2018-11-28T15:31:32.520Z,15.17
2018-11-28T15:34:01.849Z,16.70
2018-11-28T15:36:31.514Z,16.80
2018-11-28T15:39:00.823Z,20.00
2018-11-28T15:41:30.130Z,20.23
2018-11-28T15:43:59.512Z,22.90
2018-11-28T15:46:28.829Z,26.83
2018-11-28T15:48:58.245Z,22.30
2018-11-28T15:51:28.222Z,23.77
2018-11-28T15:53:57.659Z,26.83
2018-11-28T15:56:27.078Z,23.23
2018-11-28T15:58:56.459Z,27.57
2018-11-28T16:01:26.146Z,29.07
2018-11-28T16:03:55.487Z,31.23
2018-11-28T16:06:26.124Z,30.93
2018-11-28T16:08:56.671Z,31.43
2018-11-28T16:11:26.834Z,36.70
2018-11-28T16:13:56.679Z,34.73
2018-11-28T16:16:26.121Z,34.37
2018-11-28T16:18:57.868Z,35.20
2018-11-28T16:21:26.205Z,35.70
2018-11-28T16:23:55.632Z,33.53
2018-11-28T16:26:25.278Z,38.77
2018-11-28T16:28:55.322Z,37.40
2018-11-28T16:31:25.415Z,37.57
2018-11-28T16:33:54.992Z,37.13
2018-11-28T16:36:26.095Z,37.73
2018-11-28T16:38:55.472Z,41.47
2018-11-28T16:41:25.378Z,38.33
2018-11-28T16:43:54.723Z,41.30
2018-11-28T16:46:24.804Z,42.23
2018-11-28T16:48:54.277Z,47.10
2018-11-28T16:51:24.331Z,48.97
2018-11-28T16:53:53.766Z,41.83
2018-11-28T16:56:25.417Z,51.17
2018-11-28T16:58:54.777Z,43.87
2018-11-28T17:01:25.066Z,50.10
2018-11-28T17:03:54.380Z,51.93
2018-11-28T17:06:24.576Z,49.80
2018-11-28T17:08:54.125Z,51.67
2018-11-28T17:11:23.486Z,52.53
2018-11-28T17:13:57.571Z,61.27
2018-11-28T17:16:27.708Z,56.90
2018-11-28T17:18:57.029Z,59.67
2018-11-28T17:21:28.301Z,59.50
2018-11-28T17:23:57.619Z,55.03
2018-11-28T17:26:27.524Z,61.60
2018-11-28T17:28:57.095Z,60.83
2018-11-28T17:31:26.995Z,61.03
2018-11-28T17:33:56.375Z,64.97
2018-11-28T17:36:26.947Z,75.57
2018-11-28T17:38:56.391Z,66.97
2018-11-28T17:41:27.280Z,76.23
2018-11-28T17:43:58.007Z,75.47
2018-11-28T17:46:31.950Z,73.07
2018-11-28T17:49:01.481Z,81.30
2018-11-28T17:51:31.806Z,83.30
2018-11-28T17:54:01.166Z,81.40
2018-11-28T17:56:30.770Z,84.00
2018-11-28T17:59:00.455Z,96.10
2018-11-28T18:01:30.428Z,92.13
2018-11-28T18:04:00.464Z,96.20
2018-11-28T18:06:31.804Z,99.33
2018-11-28T18:09:01.178Z,98.63
2018-11-28T18:11:31.012Z,100.70
2018-11-28T18:14:00.612Z,107.57
2018-11-28T18:16:30.377Z,104.33
2018-11-28T18:18:59.737Z,112.47
2018-11-28T18:21:30.101Z,117.33
2018-11-28T18:23:59.639Z,113.37
2018-11-28T18:26:30.377Z,115.50
2018-11-28T18:28:59.839Z,122.33
2018-11-28T18:31:29.835Z,124.17
2018-11-28T18:33:59.246Z,121.03
2018-11-28T18:36:29.665Z,127.30
2018-11-28T18:38:59.176Z,130.63
2018-11-28T18:41:29.115Z,126.33
2018-11-28T18:43:58.911Z,122.60
2018-11-28T18:46:28.547Z,128.37
2018-11-28T18:48:58.186Z,130.67
2018-11-28T18:51:28.620Z,129.93
2018-11-28T18:53:58.404Z,136.20
2018-11-28T18:56:27.733Z,129.00
2018-11-28T18:58:57.475Z,135.20
2018-11-28T19:01:27.617Z,137.57
2018-11-28T19:03:57.082Z,133.67
2018-11-28T19:06:27.927Z,137.03
2018-11-28T19:08:57.824Z,144.37
2018-11-28T19:11:27.175Z,139.93
2018-11-28T19:13:56.538Z,136.93
2018-11-28T19:16:25.985Z,132.83
2018-11-28T19:18:56.592Z,139.33
2018-11-28T19:21:27.788Z,125.53
2018-11-28T19:23:57.365Z,130.30
2018-11-28T19:26:26.843Z,139.70
2018-11-28T19:28:56.263Z,134.33
2018-11-28T19:31:25.799Z,139.47
2018-11-28T19:33:55.105Z,134.40
2018-11-28T19:36:25.381Z,135.57
2018-11-28T19:38:54.848Z,133.50
2018-11-28T19:41:25.915Z,131.53
2018-11-28T19:43:57.374Z,133.87
2018-11-28T19:46:26.760Z,133.40
2018-11-28T19:48:56.622Z,128.50
2018-11-28T19:51:27.156Z,134.00
2018-11-28T19:53:56.913Z,119.93
2018-11-28T19:56:26.378Z,123.43
2018-11-28T19:58:56.063Z,128.13
2018-11-28T20:01:25.793Z,124.80
2018-11-28T20:03:55.628Z,120.77
2018-11-28T20:06:25.786Z,121.53
2018-11-28T20:11:26.394Z,114.73
2018-11-28T20:13:56.090Z,118.30
2018-11-28T20:16:27.028Z,122.57
2018-11-28T20:19:01.725Z,126.27
2018-11-28T20:21:34.325Z,115.03
2018-11-28T20:24:05.102Z,115.97
2018-11-28T20:26:35.226Z,110.83
2018-11-28T20:29:07.494Z,112.27
2018-11-28T20:31:37.239Z,110.30
2018-11-28T20:34:06.861Z,114.30
2018-11-28T20:36:37.452Z,114.63
2018-11-28T20:39:15.410Z,112.60
2018-11-28T20:41:46.405Z,120.33
2018-11-28T20:44:16.206Z,125.13
2018-11-28T20:46:45.679Z,119.40
2018-11-28T20:49:17.443Z,122.70
2018-11-28T20:51:47.770Z,121.80
2018-11-28T20:54:17.362Z,110.47
2018-11-28T20:56:46.849Z,111.70
2018-11-28T20:59:16.515Z,112.87
2018-11-28T21:01:46.692Z,105.47
2018-11-28T21:04:16.047Z,119.53
2018-11-28T21:06:46.458Z,111.03
2018-11-28T21:09:15.872Z,107.93
2018-11-28T21:11:45.370Z,100.63
2018-11-28T21:14:15.277Z,101.90
2018-11-28T21:16:44.858Z,96.80
2018-11-28T21:19:14.496Z,97.60
2018-11-28T21:21:44.547Z,96.57
2018-11-28T21:24:14.029Z,91.93
2018-11-28T21:26:43.427Z,92.47
2018-11-28T21:29:15.322Z,101.03
2018-11-28T21:31:46.821Z,99.63
2018-11-28T21:34:16.270Z,91.93
2018-11-28T21:36:46.112Z,87.97
2018-11-28T21:39:15.581Z,84.83
2018-11-28T21:41:45.031Z,90.23
2018-11-28T21:44:15.067Z,97.93
2018-11-28T21:46:45.531Z,93.03
2018-11-28T21:49:15.357Z,93.13
2018-11-28T21:51:46.788Z,90.30
2018-11-28T21:54:16.308Z,92.50
2018-11-28T21:56:45.682Z,90.50
2018-11-28T21:59:15.083Z,88.63
2018-11-28T22:01:44.631Z,90.07
2018-11-28T22:04:13.919Z,86.33
2018-11-28T22:06:43.873Z,86.07
2018-11-28T22:09:21.549Z,82.17
2018-11-28T22:11:51.704Z,78.20
2018-11-28T22:14:21.080Z,86.87
2018-11-28T22:16:51.817Z,84.47
2018-11-28T22:19:21.313Z,85.73
2018-11-28T22:21:50.723Z,82.17
2018-11-28T22:24:20.079Z,83.23
2018-11-28T22:26:49.482Z,80.47
2018-11-28T22:29:19.087Z,85.50
2018-11-28T22:31:49.093Z,82.73
2018-11-28T22:34:18.455Z,87.33
2018-11-28T22:36:47.807Z,78.23
2018-11-28T22:39:17.141Z,85.50
2018-11-28T22:41:46.448Z,80.67
2018-11-28T22:44:15.781Z,83.60
2018-11-28T22:46:45.110Z,81.00
2018-11-28T22:49:14.440Z,90.27
2018-11-28T22:51:44.605Z,92.00
2018-11-28T22:54:13.932Z,88.60
2018-11-28T22:56:43.986Z,85.17
2018-11-28T22:59:13.305Z,82.47
2018-11-28T23:03:57.262Z,79.20
2018-11-28T23:06:27.520Z,83.03
2018-11-28T23:08:56.844Z,82.93
2018-11-28T23:11:26.254Z,81.20
2018-11-28T23:13:55.608Z,82.13
2018-11-28T23:16:24.951Z,84.30
2018-11-28T23:18:54.259Z,88.73
2018-11-28T23:21:23.589Z,87.00
2018-11-28T23:23:52.876Z,80.93
2018-11-28T23:26:22.169Z,85.37
2018-11-28T23:28:51.467Z,84.53
2018-11-28T23:31:20.893Z,80.80
2018-11-28T23:33:50.256Z,82.27
2018-11-28T23:36:19.543Z,83.60
2018-11-28T23:38:48.951Z,82.40
2018-11-28T23:41:18.303Z,78.80
2018-11-28T23:43:47.625Z,89.67
2018-11-28T23:46:16.943Z,83.17
2018-11-28T23:48:46.820Z,83.90
2018-11-28T23:51:16.188Z,85.77
2018-11-28T23:53:46.334Z,82.30
2018-11-28T23:56:15.684Z,79.33
2018-11-28T23:58:45.538Z,78.87
